createdAt,value
2018-01-11T00:00:16.919Z,1009.00
2018-01-11T00:01:16.871Z,1009.06
2018-01-11T00:02:16.821Z,1009.05
2018-01-11T00:03:16.771Z,1009.07
2018-01-11T00:04:16.722Z,1009.05
2018-01-11T00:05:16.673Z,1009.04
2018-01-11T00:06:17.023Z,1009.02
2018-01-11T00:07:16.948Z,1009.03
2018-01-11T00:08:16.925Z,1009.03
2018-01-11T00:09:16.828Z,1009.06
2018-01-11T00:10:16.726Z,1009.09
2018-01-11T00:11:16.627Z,1009.04
2018-01-11T00:12:16.477Z,1009.04
2018-01-11T00:13:16.478Z,1009.04
2018-01-11T00:14:16.378Z,1009.02
2018-01-11T00:15:16.278Z,1009.01
2018-01-11T00:16:16.180Z,1009.01
2018-01-11T00:17:16.119Z,1009.01
2018-01-11T00:18:16.081Z,1009.01
2018-01-11T00:19:15.982Z,1009.02
2018-01-11T00:20:15.932Z,1009.01
2018-01-11T00:21:15.883Z,1009.02
2018-01-11T00:22:15.834Z,1009.02
2018-01-11T00:23:15.784Z,1008.99
2018-01-11T00:24:15.735Z,1008.99
2018-01-11T00:25:15.687Z,1009.00
2018-01-11T00:26:15.635Z,1008.95
2018-01-11T00:27:15.587Z,1009.00
2018-01-11T00:28:15.542Z,1009.03
2018-01-11T00:29:15.488Z,1009.00
2018-01-11T00:30:15.438Z,1009.02
2018-01-11T00:31:15.389Z,1009.03
2018-01-11T00:32:15.340Z,1009.04
2018-01-11T00:33:15.290Z,1009.04
2018-01-11T00:34:15.240Z,1009.03
2018-01-11T00:35:15.191Z,1009.04
2018-01-11T00:36:15.142Z,1009.02
2018-01-11T00:37:15.093Z,1009.02
2018-01-11T00:38:15.043Z,1009.03
2018-01-11T00:39:14.994Z,1009.02
2018-01-11T00:40:14.945Z,1009.00
2018-01-11T00:41:14.896Z,1008.98
2018-01-11T00:42:14.845Z,1008.98
2018-01-11T00:43:14.796Z,1008.97
2018-01-11T00:44:14.747Z,1008.94
2018-01-11T00:45:14.698Z,1008.92
2018-01-11T00:46:14.647Z,1008.95
2018-01-11T00:47:14.599Z,1008.90
2018-01-11T00:48:14.549Z,1008.92
2018-01-11T00:49:14.500Z,1008.94
2018-01-11T00:50:14.450Z,1008.92
2018-01-11T00:51:14.401Z,1008.93
2018-01-11T00:52:14.352Z,1008.91
2018-01-11T00:53:14.302Z,1008.92
2018-01-11T00:54:14.255Z,1008.89
2018-01-11T00:55:14.203Z,1008.86
2018-01-11T00:56:14.154Z,1008.88
2018-01-11T00:57:14.105Z,1008.90
2018-01-11T00:58:14.055Z,1008.88
2018-01-11T00:59:14.010Z,1008.89
2018-01-11T01:00:13.957Z,1008.94
2018-01-11T01:01:13.907Z,1008.92
2018-01-11T01:02:13.857Z,1008.93
2018-01-11T01:03:13.808Z,1008.89
2018-01-11T01:04:13.758Z,1008.95
2018-01-11T01:05:13.715Z,1008.98
2018-01-11T01:06:13.659Z,1008.95
2018-01-11T01:07:13.610Z,1008.98
2018-01-11T01:08:13.561Z,1008.99
2018-01-11T01:09:13.512Z,1008.98
2018-01-11T01:10:13.462Z,1009.00
2018-01-11T01:11:13.412Z,1009.00
2018-01-11T01:12:13.362Z,1009.01
2018-01-11T01:13:13.314Z,1009.01
2018-01-11T01:14:13.264Z,1009.03
2018-01-11T01:15:13.213Z,1009.03
2018-01-11T01:16:13.165Z,1009.04
2018-01-11T01:17:13.115Z,1009.05
2018-01-11T01:18:13.065Z,1009.09
2018-01-11T01:19:13.016Z,1009.10
2018-01-11T01:20:12.966Z,1009.11
2018-01-11T01:21:12.917Z,1009.12
2018-01-11T01:22:12.867Z,1009.11
2018-01-11T01:23:12.818Z,1009.10
2018-01-11T01:24:12.768Z,1009.13
2018-01-11T01:25:12.720Z,1009.12
2018-01-11T01:26:12.669Z,1009.10
2018-01-11T01:27:12.619Z,1009.13
2018-01-11T01:28:12.570Z,1009.12
2018-01-11T01:29:12.520Z,1009.14
2018-01-11T01:30:12.470Z,1009.14
2018-01-11T01:31:12.421Z,1009.15
2018-01-11T01:32:12.371Z,1009.14
2018-01-11T01:33:12.322Z,1009.15
2018-01-11T01:34:12.272Z,1009.13
2018-01-11T01:35:12.222Z,1009.12
2018-01-11T01:36:12.172Z,1009.14
2018-01-11T01:37:12.123Z,1009.15
2018-01-11T01:38:12.072Z,1009.20
2018-01-11T01:39:12.023Z,1009.19
2018-01-11T01:40:11.974Z,1009.20
2018-01-11T01:41:11.924Z,1009.21
2018-01-11T01:42:11.873Z,1009.20
2018-01-11T01:43:11.824Z,1009.18
2018-01-11T01:44:11.775Z,1009.20
2018-01-11T01:45:11.725Z,1009.21
2018-01-11T01:46:11.674Z,1009.21
2018-01-11T01:47:11.626Z,1009.23
2018-01-11T01:48:11.575Z,1009.21
2018-01-11T01:49:11.526Z,1009.22
2018-01-11T01:50:11.477Z,1009.18
2018-01-11T01:51:11.427Z,1009.23
2018-01-11T01:52:11.376Z,1009.24
2018-01-11T01:53:11.326Z,1009.24
2018-01-11T01:54:11.277Z,1009.24
2018-01-11T01:55:11.226Z,1009.23
2018-01-11T01:56:11.177Z,1009.24
2018-01-11T01:57:11.126Z,1009.23
2018-01-11T01:58:11.076Z,1009.24
2018-01-11T01:59:11.026Z,1009.25
2018-01-11T02:00:10.976Z,1009.20
2018-01-11T02:01:10.927Z,1009.28
2018-01-11T02:02:10.882Z,1009.22
2018-01-11T02:03:10.826Z,1009.26
2018-01-11T02:04:10.777Z,1009.22
2018-01-11T02:05:10.727Z,1009.26
2018-01-11T02:06:10.676Z,1009.25
2018-01-11T02:07:10.626Z,1009.25
2018-01-11T02:08:10.575Z,1009.24
2018-01-11T02:09:10.526Z,1009.22
2018-01-11T02:10:10.476Z,1009.23
2018-01-11T02:11:10.426Z,1009.24
2018-01-11T02:12:10.426Z,1009.24
2018-01-11T02:13:10.333Z,1009.22
2018-01-11T02:14:10.275Z,1009.24
2018-01-11T02:15:10.232Z,1009.28
2018-01-11T02:16:10.176Z,1009.22
2018-01-11T02:17:10.127Z,1009.28
2018-01-11T02:18:10.075Z,1009.23
2018-01-11T02:19:10.025Z,1009.26
2018-01-11T02:20:09.975Z,1009.25
2018-01-11T02:21:09.925Z,1009.28
2018-01-11T02:22:09.874Z,1009.30
2018-01-11T02:23:09.825Z,1009.30
2018-01-11T02:24:09.778Z,1009.30
2018-01-11T02:25:09.726Z,1009.31
2018-01-11T02:26:09.674Z,1009.33
2018-01-11T02:27:09.624Z,1009.30
2018-01-11T02:28:09.575Z,1009.30
2018-01-11T02:29:09.524Z,1009.32
2018-01-11T02:30:09.474Z,1009.34
2018-01-11T02:31:09.423Z,1009.33
2018-01-11T02:32:09.374Z,1009.38
2018-01-11T02:33:09.323Z,1009.37
2018-01-11T02:34:09.272Z,1009.35
2018-01-11T02:35:09.222Z,1009.33
2018-01-11T02:36:09.173Z,1009.39
2018-01-11T02:37:09.123Z,1009.39
2018-01-11T02:38:09.073Z,1009.39
2018-01-11T02:39:09.022Z,1009.37
2018-01-11T02:40:08.982Z,1009.41
2018-01-11T02:41:08.923Z,1009.39
2018-01-11T02:42:08.872Z,1009.41
2018-01-11T02:43:08.821Z,1009.39
2018-01-11T02:44:08.773Z,1009.38
2018-01-11T02:45:08.722Z,1009.39
2018-01-11T02:46:08.671Z,1009.43
2018-01-11T02:47:08.621Z,1009.44
2018-01-11T02:48:08.575Z,1009.43
2018-01-11T02:49:08.522Z,1009.43
2018-01-11T02:50:08.472Z,1009.47
2018-01-11T02:51:08.421Z,1009.41
2018-01-11T02:52:08.373Z,1009.43
2018-01-11T02:53:08.328Z,1009.44
2018-01-11T02:54:08.269Z,1009.44
2018-01-11T02:55:08.221Z,1009.43
2018-01-11T02:56:08.170Z,1009.46
2018-01-11T02:57:08.120Z,1009.45
2018-01-11T02:58:08.069Z,1009.48
2018-01-11T02:59:08.021Z,1009.48
2018-01-11T03:00:07.970Z,1009.51
2018-01-11T03:01:07.920Z,1009.49
2018-01-11T03:02:07.869Z,1009.46
2018-01-11T03:03:07.822Z,1009.50
2018-01-11T03:04:07.769Z,1009.52
2018-01-11T03:05:07.719Z,1009.51
2018-01-11T03:06:07.668Z,1009.48
2018-01-11T03:07:07.618Z,1009.52
2018-01-11T03:08:07.568Z,1009.51
2018-01-11T03:09:07.519Z,1009.54
2018-01-11T03:10:07.473Z,1009.54
2018-01-11T03:11:07.418Z,1009.54
2018-01-11T03:12:07.374Z,1009.52
2018-01-11T03:13:07.318Z,1009.51
2018-01-11T03:14:07.271Z,1009.50
2018-01-11T03:15:07.217Z,1009.49
2018-01-11T03:16:07.168Z,1009.49
2018-01-11T03:17:07.118Z,1009.49
2018-01-11T03:18:07.067Z,1009.51
2018-01-11T03:19:07.018Z,1009.51
2018-01-11T03:20:06.968Z,1009.50
2018-01-11T03:21:06.918Z,1009.47
2018-01-11T03:22:06.867Z,1009.43
2018-01-11T03:23:06.817Z,1009.41
2018-01-11T03:24:06.767Z,1009.38
2018-01-11T03:25:06.721Z,1009.37
2018-01-11T03:26:06.667Z,1009.42
2018-01-11T03:27:06.617Z,1009.35
2018-01-11T03:28:07.020Z,1009.41
2018-01-11T03:29:06.918Z,1009.39
2018-01-11T03:30:06.818Z,1009.41
2018-01-11T03:31:06.677Z,1009.39
2018-01-11T03:32:06.717Z,1009.39
2018-01-11T03:33:06.568Z,1009.42
2018-01-11T03:34:06.468Z,1009.38
2018-01-11T03:35:06.367Z,1009.42
2018-01-11T03:36:06.217Z,1009.44
2018-01-11T03:37:06.268Z,1009.42
2018-01-11T03:38:06.117Z,1009.40
2018-01-11T03:39:06.017Z,1009.42
2018-01-11T03:40:05.968Z,1009.43
2018-01-11T03:41:05.918Z,1009.38
2018-01-11T03:42:05.917Z,1009.43
2018-01-11T03:43:05.818Z,1009.43
2018-01-11T03:44:05.771Z,1009.37
2018-01-11T03:45:05.718Z,1009.42
2018-01-11T03:46:05.667Z,1009.43
2018-01-11T03:47:05.617Z,1009.43
2018-01-11T03:48:05.568Z,1009.40
2018-01-11T03:49:05.518Z,1009.40
2018-01-11T03:50:05.468Z,1009.38
2018-01-11T03:51:05.418Z,1009.40
2018-01-11T03:52:05.368Z,1009.38
2018-01-11T03:53:05.318Z,1009.39
2018-01-11T03:54:05.267Z,1009.38
2018-01-11T03:55:05.220Z,1009.40
2018-01-11T03:56:05.168Z,1009.39
2018-01-11T03:57:05.118Z,1009.36
2018-01-11T03:58:05.072Z,1009.39
2018-01-11T03:59:05.018Z,1009.36
2018-01-11T04:00:04.968Z,1009.39
2018-01-11T04:01:04.918Z,1009.38
2018-01-11T04:02:04.868Z,1009.39
2018-01-11T04:03:04.819Z,1009.38
2018-01-11T04:04:04.769Z,1009.40
2018-01-11T04:05:04.719Z,1009.44
2018-01-11T04:06:04.668Z,1009.40
2018-01-11T04:07:04.618Z,1009.39
2018-01-11T04:08:04.569Z,1009.38
2018-01-11T04:09:04.520Z,1009.35
2018-01-11T04:10:04.470Z,1009.39
2018-01-11T04:11:04.421Z,1009.44
2018-01-11T04:12:04.369Z,1009.44
2018-01-11T04:13:04.320Z,1009.40
2018-01-11T04:14:04.269Z,1009.41
2018-01-11T04:15:04.220Z,1009.42
2018-01-11T04:16:04.171Z,1009.41
2018-01-11T04:17:04.121Z,1009.42
2018-01-11T04:18:04.070Z,1009.45
2018-01-11T04:19:04.020Z,1009.43
2018-01-11T04:20:03.971Z,1009.46
2018-01-11T04:21:03.921Z,1009.47
2018-01-11T04:22:03.921Z,1009.48
2018-01-11T04:23:03.821Z,1009.51
2018-01-11T04:24:03.771Z,1009.50
2018-01-11T04:25:03.722Z,1009.54
2018-01-11T04:26:03.674Z,1009.52
2018-01-11T04:27:03.624Z,1009.55
2018-01-11T04:28:03.572Z,1009.52
2018-01-11T04:29:03.523Z,1009.57
2018-01-11T04:30:03.472Z,1009.55
2018-01-11T04:31:03.430Z,1009.57
2018-01-11T04:32:03.383Z,1009.58
2018-01-11T04:33:03.324Z,1009.59
2018-01-11T04:34:03.273Z,1009.60
2018-01-11T04:35:03.428Z,1009.60
2018-01-11T04:36:03.174Z,1009.59
2018-01-11T04:37:03.125Z,1009.57
2018-01-11T04:38:03.074Z,1009.55
2018-01-11T04:39:03.024Z,1009.57
2018-01-11T04:40:02.975Z,1009.57
2018-01-11T04:41:02.925Z,1009.56
2018-01-11T04:42:02.875Z,1009.57
2018-01-11T04:43:02.825Z,1009.59
2018-01-11T04:44:02.776Z,1009.64
2018-01-11T04:45:02.727Z,1009.59
2018-01-11T04:46:02.676Z,1009.61
2018-01-11T04:47:02.626Z,1009.62
2018-01-11T04:48:02.577Z,1009.63
2018-01-11T04:49:02.527Z,1009.63
2018-01-11T04:50:02.476Z,1009.61
2018-01-11T04:51:02.427Z,1009.61
2018-01-11T04:52:02.378Z,1009.65
2018-01-11T04:53:02.329Z,1009.60
2018-01-11T04:54:02.277Z,1009.65
2018-01-11T04:55:02.228Z,1009.66
2018-01-11T04:56:02.178Z,1009.68
2018-01-11T04:57:02.129Z,1009.63
2018-01-11T04:58:02.079Z,1009.67
2018-01-11T04:59:02.029Z,1009.71
2018-01-11T05:00:01.980Z,1009.71
2018-01-11T05:01:01.929Z,1009.68
2018-01-11T05:02:01.880Z,1009.70
2018-01-11T05:03:01.830Z,1009.71
2018-01-11T05:04:01.787Z,1009.67
2018-01-11T05:05:01.731Z,1009.74
2018-01-11T05:06:01.680Z,1009.72
2018-01-11T05:07:01.634Z,1009.78
2018-01-11T05:08:01.586Z,1009.75
2018-01-11T05:09:01.532Z,1009.76
2018-01-11T05:10:01.484Z,1009.80
2018-01-11T05:11:01.432Z,1009.78
2018-01-11T05:12:01.422Z,1009.81
2018-01-11T05:13:01.332Z,1009.78
2018-01-11T05:14:01.281Z,1009.79
2018-01-11T05:15:01.232Z,1009.78
2018-01-11T05:16:01.184Z,1009.74
2018-01-11T05:17:01.133Z,1009.71
2018-01-11T05:18:01.082Z,1009.74
2018-01-11T05:19:01.033Z,1009.75
2018-01-11T05:20:00.982Z,1009.75
2018-01-11T05:21:00.932Z,1009.72
2018-01-11T05:22:00.881Z,1009.72
2018-01-11T05:23:00.837Z,1009.72
2018-01-11T05:24:00.782Z,1009.71
2018-01-11T05:25:00.732Z,1009.73
2018-01-11T05:26:00.681Z,1009.71
2018-01-11T05:27:00.633Z,1009.73
2018-01-11T05:28:00.581Z,1009.72
2018-01-11T05:29:00.532Z,1009.70
2018-01-11T05:30:00.481Z,1009.73
2018-01-11T05:31:00.431Z,1009.75
2018-01-11T05:32:00.381Z,1009.74
2018-01-11T05:33:00.331Z,1009.75
2018-01-11T05:34:00.280Z,1009.76
2018-01-11T05:35:00.229Z,1009.79
2018-01-11T05:36:00.180Z,1009.78
2018-01-11T05:37:00.130Z,1009.80
2018-01-11T05:38:00.079Z,1009.82
2018-01-11T05:39:00.032Z,1009.82
2018-01-11T05:39:59.979Z,1009.79
2018-01-11T05:40:59.928Z,1009.82
2018-01-11T05:41:59.882Z,1009.80
2018-01-11T05:42:59.827Z,1009.82
2018-01-11T05:43:59.777Z,1009.80
2018-01-11T05:44:59.727Z,1009.79
2018-01-11T05:45:59.676Z,1009.79
2018-01-11T05:46:59.626Z,1009.78
2018-01-11T05:47:59.577Z,1009.80
2018-01-11T05:48:59.526Z,1009.78
2018-01-11T05:49:59.478Z,1009.82
2018-01-11T05:50:59.425Z,1009.75
2018-01-11T05:51:59.377Z,1009.80
2018-01-11T05:52:59.328Z,1009.81
2018-01-11T05:53:59.324Z,1009.81
2018-01-11T05:54:59.224Z,1009.82
2018-01-11T05:55:59.174Z,1009.80
2018-01-11T05:56:59.124Z,1009.82
2018-01-11T05:57:59.074Z,1009.77
2018-01-11T05:58:59.025Z,1009.77
2018-01-11T05:59:58.973Z,1009.76
2018-01-11T06:00:58.925Z,1009.76
2018-01-11T06:01:58.874Z,1009.78
2018-01-11T06:02:58.823Z,1009.77
2018-01-11T06:03:58.773Z,1009.78
2018-01-11T06:04:58.723Z,1009.79
2018-01-11T06:05:58.673Z,1009.78
2018-01-11T06:06:58.622Z,1009.75
2018-01-11T06:07:58.573Z,1009.79
2018-01-11T06:08:58.523Z,1009.80
2018-01-11T06:09:58.473Z,1009.78
2018-01-11T06:10:58.422Z,1009.83
2018-01-11T06:11:58.371Z,1009.82
2018-01-11T06:12:58.321Z,1009.84
2018-01-11T06:13:58.271Z,1009.85
2018-01-11T06:14:58.222Z,1009.85
2018-01-11T06:15:58.172Z,1009.86
2018-01-11T06:16:58.122Z,1009.90
2018-01-11T06:17:58.071Z,1009.89
2018-01-11T06:18:58.021Z,1009.89
2018-01-11T06:19:57.973Z,1009.88
2018-01-11T06:20:57.923Z,1009.89
2018-01-11T06:21:57.871Z,1009.89
2018-01-11T06:22:57.833Z,1009.89
2018-01-11T06:23:57.771Z,1009.90
2018-01-11T06:24:57.722Z,1009.93
2018-01-11T06:25:57.670Z,1009.97
2018-01-11T06:26:57.620Z,1009.96
2018-01-11T06:27:57.570Z,1010.01
2018-01-11T06:28:57.523Z,1010.01
2018-01-11T06:29:57.470Z,1010.07
2018-01-11T06:30:57.419Z,1010.04
2018-01-11T06:31:57.370Z,1010.07
2018-01-11T06:32:57.321Z,1010.09
2018-01-11T06:33:57.270Z,1010.13
2018-01-11T06:34:57.220Z,1010.13
2018-01-11T06:35:57.170Z,1010.13
2018-01-11T06:36:57.128Z,1010.11
2018-01-11T06:37:57.070Z,1010.10
2018-01-11T06:38:57.020Z,1010.13
2018-01-11T06:39:56.971Z,1010.15
2018-01-11T06:40:56.921Z,1010.14
2018-01-11T06:41:56.870Z,1010.14
2018-01-11T06:42:56.820Z,1010.17
2018-01-11T06:43:56.770Z,1010.17
2018-01-11T06:44:56.721Z,1010.20
2018-01-11T06:45:56.670Z,1010.22
2018-01-11T06:46:56.623Z,1010.22
2018-01-11T06:47:56.571Z,1010.23
2018-01-11T06:48:56.522Z,1010.22
2018-01-11T06:49:56.471Z,1010.20
2018-01-11T06:50:56.420Z,1010.19
2018-01-11T06:51:56.371Z,1010.22
2018-01-11T06:52:56.337Z,1010.17
2018-01-11T06:53:56.720Z,1010.16
2018-01-11T06:54:56.621Z,1010.17
2018-01-11T06:55:56.471Z,1010.18
2018-01-11T06:56:56.521Z,1010.16
2018-01-11T06:57:56.371Z,1010.15
2018-01-11T06:58:56.273Z,1010.19
2018-01-11T06:59:56.172Z,1010.20
2018-01-11T07:00:56.173Z,1010.20
2018-01-11T07:01:56.072Z,1010.20
2018-01-11T07:02:55.972Z,1010.16
2018-01-11T07:03:55.872Z,1010.19
2018-01-11T07:04:55.773Z,1010.17
2018-01-11T07:05:55.772Z,1010.16
2018-01-11T07:06:55.623Z,1010.13
2018-01-11T07:07:55.573Z,1010.10
2018-01-11T07:08:55.523Z,1010.12
2018-01-11T07:09:55.472Z,1010.14
2018-01-11T07:10:55.423Z,1010.09
2018-01-11T07:11:55.374Z,1010.15
2018-01-11T07:12:55.324Z,1010.19
2018-01-11T07:13:55.274Z,1010.19
2018-01-11T07:14:55.224Z,1010.19
2018-01-11T07:15:55.175Z,1010.24
2018-01-11T07:16:55.125Z,1010.25
2018-01-11T07:17:55.226Z,1010.27
2018-01-11T07:18:55.025Z,1010.26
2018-01-11T07:19:54.976Z,1010.28
2018-01-11T07:20:54.927Z,1010.27
2018-01-11T07:21:54.876Z,1010.28
2018-01-11T07:22:54.834Z,1010.28
2018-01-11T07:23:54.778Z,1010.29
2018-01-11T07:24:54.728Z,1010.27
2018-01-11T07:25:54.678Z,1010.29
2018-01-11T07:26:54.628Z,1010.28
2018-01-11T07:27:54.580Z,1010.29
2018-01-11T07:28:54.530Z,1010.27
2018-01-11T07:29:54.479Z,1010.31
2018-01-11T07:30:54.430Z,1010.29
2018-01-11T07:31:54.380Z,1010.28
2018-01-11T07:32:54.331Z,1010.30
2018-01-11T07:33:54.281Z,1010.30
2018-01-11T07:34:54.282Z,1010.32
2018-01-11T07:35:54.182Z,1010.32
2018-01-11T07:36:54.134Z,1010.33
2018-01-11T07:37:54.084Z,1010.34
2018-01-11T07:38:54.034Z,1010.31
2018-01-11T07:39:53.985Z,1010.32
2018-01-11T07:40:53.939Z,1010.37
2018-01-11T07:41:53.884Z,1010.36
2018-01-11T07:42:53.836Z,1010.38
2018-01-11T07:43:53.787Z,1010.38
2018-01-11T07:44:53.739Z,1010.35
2018-01-11T07:45:53.688Z,1010.42
2018-01-11T07:46:53.639Z,1010.37
2018-01-11T07:47:53.590Z,1010.36
2018-01-11T07:48:53.541Z,1010.34
2018-01-11T07:49:53.491Z,1010.37
2018-01-11T07:50:53.442Z,1010.35
2018-01-11T07:51:53.392Z,1010.33
2018-01-11T07:52:53.343Z,1010.34
2018-01-11T07:53:53.293Z,1010.32
2018-01-11T07:54:53.244Z,1010.32
2018-01-11T07:55:53.195Z,1010.35
2018-01-11T07:56:53.146Z,1010.35
2018-01-11T07:57:53.096Z,1010.33
2018-01-11T07:58:53.047Z,1010.28
2018-01-11T07:59:52.998Z,1010.33
2018-01-11T08:00:52.948Z,1010.33
2018-01-11T08:01:52.899Z,1010.31
2018-01-11T08:02:52.850Z,1010.33
2018-01-11T08:03:52.801Z,1010.29
2018-01-11T08:04:52.752Z,1010.27
2018-01-11T08:05:52.702Z,1010.34
2018-01-11T08:06:52.653Z,1010.32
2018-01-11T08:07:52.604Z,1010.33
2018-01-11T08:08:52.554Z,1010.36
2018-01-11T08:09:52.505Z,1010.37
2018-01-11T08:10:52.456Z,1010.42
2018-01-11T08:11:52.407Z,1010.41
2018-01-11T08:12:52.358Z,1010.45
2018-01-11T08:13:52.307Z,1010.48
2018-01-11T08:14:52.264Z,1010.50
2018-01-11T08:15:52.210Z,1010.54
2018-01-11T08:16:52.161Z,1010.55
2018-01-11T08:17:52.111Z,1010.56
2018-01-11T08:18:52.063Z,1010.60
2018-01-11T08:19:52.013Z,1010.61
2018-01-11T08:20:51.971Z,1010.63
2018-01-11T08:21:51.913Z,1010.61
2018-01-11T08:22:51.866Z,1010.64
2018-01-11T08:23:51.815Z,1010.67
2018-01-11T08:24:51.766Z,1010.70
2018-01-11T08:25:51.716Z,1010.68
2018-01-11T08:26:51.667Z,1010.70
2018-01-11T08:27:51.617Z,1010.72
2018-01-11T08:28:51.569Z,1010.73
2018-01-11T08:29:51.518Z,1010.74
2018-01-11T08:30:51.470Z,1010.74
2018-01-11T08:31:51.421Z,1010.75
2018-01-11T08:32:51.372Z,1010.77
2018-01-11T08:33:51.321Z,1010.79
2018-01-11T08:34:51.272Z,1010.79
2018-01-11T08:35:51.224Z,1010.82
2018-01-11T08:36:51.174Z,1010.84
2018-01-11T08:37:51.125Z,1010.85
2018-01-11T08:38:51.075Z,1010.89
2018-01-11T08:39:51.026Z,1010.89
2018-01-11T08:40:50.978Z,1010.87
2018-01-11T08:41:50.927Z,1010.90
2018-01-11T08:42:50.877Z,1010.91
2018-01-11T08:43:50.829Z,1010.91
2018-01-11T08:44:50.780Z,1010.93
2018-01-11T08:45:50.730Z,1010.91
2018-01-11T08:46:50.682Z,1010.90
2018-01-11T08:47:50.633Z,1010.92
2018-01-11T08:48:50.584Z,1010.97
2018-01-11T08:49:50.532Z,1010.94
2018-01-11T08:50:50.484Z,1010.94
2018-01-11T08:51:50.436Z,1010.97
2018-01-11T08:52:50.386Z,1010.98
2018-01-11T08:53:50.337Z,1010.97
2018-01-11T08:54:50.288Z,1011.00
2018-01-11T08:55:50.241Z,1011.02
2018-01-11T08:56:50.190Z,1011.04
2018-01-11T08:57:50.139Z,1011.00
2018-01-11T08:58:50.091Z,1010.99
2018-01-11T08:59:50.042Z,1011.00
2018-01-11T09:00:49.993Z,1011.05
2018-01-11T09:01:49.943Z,1011.07
2018-01-11T09:02:49.894Z,1011.06
2018-01-11T09:03:49.848Z,1011.06
2018-01-11T09:04:49.796Z,1011.08
2018-01-11T09:05:49.747Z,1011.12
2018-01-11T09:06:49.696Z,1011.11
2018-01-11T09:07:49.648Z,1011.13
2018-01-11T09:08:49.600Z,1011.14
2018-01-11T09:09:49.549Z,1011.17
2018-01-11T09:10:49.501Z,1011.16
2018-01-11T09:11:49.452Z,1011.17
2018-01-11T09:12:49.403Z,1011.22
2018-01-11T09:13:49.357Z,1011.18
2018-01-11T09:14:49.306Z,1011.21
2018-01-11T09:15:49.255Z,1011.24
2018-01-11T09:16:49.207Z,1011.22
2018-01-11T09:17:49.157Z,1011.23
2018-01-11T09:18:49.108Z,1011.25
2018-01-11T09:19:49.059Z,1011.29
2018-01-11T09:20:49.010Z,1011.26
2018-01-11T09:21:48.960Z,1011.27
2018-01-11T09:22:48.911Z,1011.31
2018-01-11T09:23:48.863Z,1011.32
2018-01-11T09:24:48.814Z,1011.30
2018-01-11T09:25:48.764Z,1011.34
2018-01-11T09:26:48.715Z,1011.34
2018-01-11T09:27:48.666Z,1011.35
2018-01-11T09:28:48.617Z,1011.38
2018-01-11T09:29:48.567Z,1011.39
2018-01-11T09:30:48.519Z,1011.38
2018-01-11T09:31:48.470Z,1011.41
2018-01-11T09:32:48.521Z,1011.44
2018-01-11T09:33:48.371Z,1011.42
2018-01-11T09:34:48.324Z,1011.47
2018-01-11T09:35:48.274Z,1011.43
2018-01-11T09:36:48.226Z,1011.48
2018-01-11T09:37:48.175Z,1011.47
2018-01-11T09:38:48.127Z,1011.49
2018-01-11T09:39:48.078Z,1011.44
2018-01-11T09:40:48.029Z,1011.49
2018-01-11T09:41:47.979Z,1011.50
2018-01-11T09:42:47.930Z,1011.50
2018-01-11T09:43:47.882Z,1011.56
2018-01-11T09:44:47.833Z,1011.53
2018-01-11T09:45:47.783Z,1011.56
2018-01-11T09:46:47.734Z,1011.58
2018-01-11T09:47:47.686Z,1011.57
2018-01-11T09:48:47.637Z,1011.58
2018-01-11T09:49:47.587Z,1011.59
2018-01-11T09:50:47.538Z,1011.61
2018-01-11T09:51:47.489Z,1011.61
2018-01-11T09:52:47.440Z,1011.61
2018-01-11T09:53:47.390Z,1011.61
2018-01-11T09:54:47.343Z,1011.64
2018-01-11T09:55:47.293Z,1011.58
2018-01-11T09:56:47.322Z,1011.65
2018-01-11T09:57:47.201Z,1011.61
2018-01-11T09:58:47.145Z,1011.64
2018-01-11T09:59:47.096Z,1011.61
2018-01-11T10:00:47.048Z,1011.62
2018-01-11T10:01:46.997Z,1011.62
2018-01-11T10:02:46.948Z,1011.65
2018-01-11T10:03:46.900Z,1011.60
2018-01-11T10:04:46.851Z,1011.63
2018-01-11T10:05:46.802Z,1011.62
2018-01-11T10:06:46.752Z,1011.63
2018-01-11T10:07:46.702Z,1011.61
2018-01-11T10:08:46.654Z,1011.63
2018-01-11T10:09:46.605Z,1011.61
2018-01-11T10:10:46.554Z,1011.57
2018-01-11T10:11:46.505Z,1011.57
2018-01-11T10:12:46.456Z,1011.61
2018-01-11T10:13:46.407Z,1011.61
2018-01-11T10:14:46.358Z,1011.60
2018-01-11T10:15:46.307Z,1011.63
2018-01-11T10:16:46.260Z,1011.63
2018-01-11T10:17:46.209Z,1011.63
2018-01-11T10:18:46.163Z,1011.62
2018-01-11T10:19:46.111Z,1011.62
2018-01-11T10:20:46.062Z,1011.64
2018-01-11T10:21:46.012Z,1011.65
2018-01-11T10:22:45.962Z,1011.65
2018-01-11T10:23:45.914Z,1011.69
2018-01-11T10:24:45.867Z,1011.66
2018-01-11T10:25:45.815Z,1011.67
2018-01-11T10:26:45.766Z,1011.67
2018-01-11T10:27:45.716Z,1011.63
2018-01-11T10:28:46.119Z,1011.66
2018-01-11T10:29:46.018Z,1011.65
2018-01-11T10:30:46.019Z,1011.67
2018-01-11T10:31:45.919Z,1011.68
2018-01-11T10:32:45.821Z,1011.69
2018-01-11T10:33:45.721Z,1011.70
2018-01-11T10:34:45.572Z,1011.72
2018-01-11T10:35:45.624Z,1011.71
2018-01-11T10:36:45.525Z,1011.72
2018-01-11T10:37:45.373Z,1011.73
2018-01-11T10:38:45.277Z,1011.71
2018-01-11T10:39:45.131Z,1011.68
2018-01-11T10:40:45.128Z,1011.75
2018-01-11T10:41:45.029Z,1011.75
2018-01-11T10:42:44.979Z,1011.76
2018-01-11T10:43:44.930Z,1011.78
2018-01-11T10:44:44.881Z,1011.76
2018-01-11T10:45:44.832Z,1011.76
2018-01-11T10:46:44.783Z,1011.80
2018-01-11T10:47:44.735Z,1011.81
2018-01-11T10:48:44.685Z,1011.82
2018-01-11T10:49:44.635Z,1011.84
2018-01-11T10:50:44.586Z,1011.83
2018-01-11T10:51:44.538Z,1011.85
2018-01-11T10:52:44.489Z,1011.84
2018-01-11T10:53:44.439Z,1011.84
2018-01-11T10:54:44.390Z,1011.83
2018-01-11T10:55:44.341Z,1011.84
2018-01-11T10:56:44.293Z,1011.85
2018-01-11T10:57:44.243Z,1011.87
2018-01-11T10:58:44.194Z,1011.88
2018-01-11T10:59:44.145Z,1011.86
2018-01-11T11:00:44.096Z,1011.86
2018-01-11T11:01:44.046Z,1011.85
2018-01-11T11:02:43.997Z,1011.87
2018-01-11T11:03:43.948Z,1011.87
2018-01-11T11:04:43.900Z,1011.87
2018-01-11T11:05:43.850Z,1011.83
2018-01-11T11:06:43.801Z,1011.86
2018-01-11T11:07:43.752Z,1011.86
2018-01-11T11:08:43.702Z,1011.88
2018-01-11T11:09:43.654Z,1011.82
2018-01-11T11:10:43.604Z,1011.86
2018-01-11T11:11:43.556Z,1011.84
2018-01-11T11:12:43.507Z,1011.86
2018-01-11T11:13:43.457Z,1011.89
2018-01-11T11:14:43.409Z,1011.89
2018-01-11T11:15:43.359Z,1011.89
2018-01-11T11:16:43.311Z,1011.86
2018-01-11T11:17:43.261Z,1011.87
2018-01-11T11:18:43.213Z,1011.91
2018-01-11T11:19:43.163Z,1011.89
2018-01-11T11:20:43.114Z,1011.90
2018-01-11T11:21:43.115Z,1011.90
2018-01-11T11:22:43.016Z,1011.89
2018-01-11T11:23:42.967Z,1011.87
2018-01-11T11:24:42.918Z,1011.89
2018-01-11T11:25:42.870Z,1011.89
2018-01-11T11:26:42.820Z,1011.88
2018-01-11T11:27:42.772Z,1011.93
2018-01-11T11:28:42.722Z,1011.91
2018-01-11T11:29:42.676Z,1011.90
2018-01-11T11:30:42.626Z,1011.91
2018-01-11T11:31:42.576Z,1011.90
2018-01-11T11:32:42.528Z,1011.91
2018-01-11T11:33:42.478Z,1011.91
2018-01-11T11:34:42.436Z,1011.95
2018-01-11T11:35:42.381Z,1011.92
2018-01-11T11:36:42.332Z,1011.92
2018-01-11T11:37:42.284Z,1011.94
2018-01-11T11:38:42.234Z,1011.88
2018-01-11T11:39:42.186Z,1011.96
2018-01-11T11:40:42.137Z,1011.94
2018-01-11T11:41:42.088Z,1011.93
2018-01-11T11:42:42.040Z,1011.97
2018-01-11T11:43:41.992Z,1011.91
2018-01-11T11:44:41.943Z,1011.95
2018-01-11T11:45:41.894Z,1011.91
2018-01-11T11:46:41.845Z,1011.97
2018-01-11T11:47:41.797Z,1011.95
2018-01-11T11:48:41.748Z,1011.95
2018-01-11T11:49:41.700Z,1011.92
2018-01-11T11:50:41.652Z,1011.94
2018-01-11T11:51:41.603Z,1011.94
2018-01-11T11:52:41.555Z,1011.90
2018-01-11T11:53:41.505Z,1011.91
2018-01-11T11:54:41.457Z,1011.91
2018-01-11T11:55:41.408Z,1011.90
2018-01-11T11:56:41.360Z,1011.93
2018-01-11T11:57:41.311Z,1011.88
2018-01-11T11:58:41.263Z,1011.87
2018-01-11T11:59:41.215Z,1011.87
2018-01-11T12:00:41.166Z,1011.87
2018-01-11T12:01:41.117Z,1011.89
2018-01-11T12:02:41.069Z,1011.93
2018-01-11T12:03:41.021Z,1011.91
2018-01-11T12:04:40.974Z,1011.89